sensor_id;sensor_type;location;lat;lon;timestamp;P1;durP1;ratioP1;P2;durP2;ratioP2
19758;SDS011;10038;42.662;23.278;2023-03-14T00:01:24;16.88;;;8.90;;
19758;SDS011;10038;42.662;23.278;2023-03-14T00:03:50;19.00;;;9.65;;
19758;SDS011;10038;42.662;23.278;2023-03-14T00:06:18;13.35;;;7.60;;
19758;SDS011;10038;42.662;23.278;2023-03-14T00:08:45;13.55;;;8.25;;
19758;SDS011;10038;42.662;23.278;2023-03-14T00:11:13;17.35;;;8.95;;
19758;SDS011;10038;42.662;23.278;2023-03-14T00:13:39;13.45;;;7.57;;
19758;SDS011;10038;42.662;23.278;2023-03-14T00:16:07;11.88;;;6.70;;
19758;SDS011;10038;42.662;23.278;2023-03-14T00:18:34;14.48;;;7.18;;
19758;SDS011;10038;42.662;23.278;2023-03-14T00:21:01;13.25;;;7.45;;
19758;SDS011;10038;42.662;23.278;2023-03-14T00:23:30;13.40;;;7.65;;
19758;SDS011;10038;42.662;23.278;2023-03-14T00:25:58;12.10;;;7.90;;
19758;SDS011;10038;42.662;23.278;2023-03-14T00:28:25;15.20;;;8.50;;
19758;SDS011;10038;42.662;23.278;2023-03-14T00:30:51;12.80;;;8.02;;
19758;SDS011;10038;42.662;23.278;2023-03-14T00:33:18;16.70;;;8.18;;
19758;SDS011;10038;42.662;23.278;2023-03-14T00:35:51;10.05;;;7.13;;
19758;SDS011;10038;42.662;23.278;2023-03-14T00:38:18;16.05;;;7.53;;
19758;SDS011;10038;42.662;23.278;2023-03-14T00:40:46;13.80;;;7.78;;
19758;SDS011;10038;42.662;23.278;2023-03-14T00:43:12;9.25;;;6.10;;
19758;SDS011;10038;42.662;23.278;2023-03-14T00:45:39;16.05;;;7.55;;
19758;SDS011;10038;42.662;23.278;2023-03-14T00:48:05;15.38;;;9.27;;
19758;SDS011;10038;42.662;23.278;2023-03-14T00:50:32;23.90;;;10.38;;
19758;SDS011;10038;42.662;23.278;2023-03-14T00:52:58;17.40;;;9.88;;
19758;SDS011;10038;42.662;23.278;2023-03-14T00:55:25;17.58;;;9.93;;
19758;SDS011;10038;42.662;23.278;2023-03-14T00:57:53;21.23;;;10.15;;
19758;SDS011;10038;42.662;23.278;2023-03-14T01:00:19;21.90;;;10.82;;
19758;SDS011;10038;42.662;23.278;2023-03-14T01:02:46;16.73;;;9.20;;
19758;SDS011;10038;42.662;23.278;2023-03-14T01:05:13;15.00;;;8.18;;
19758;SDS011;10038;42.662;23.278;2023-03-14T01:07:39;14.02;;;8.70;;
19758;SDS011;10038;42.662;23.278;2023-03-14T01:10:06;18.48;;;10.88;;
19758;SDS011;10038;42.662;23.278;2023-03-14T01:12:33;22.25;;;9.90;;
19758;SDS011;10038;42.662;23.278;2023-03-14T01:15:01;19.05;;;10.65;;
19758;SDS011;10038;42.662;23.278;2023-03-14T01:17:28;20.60;;;10.07;;
19758;SDS011;10038;42.662;23.278;2023-03-14T01:19:54;18.15;;;10.35;;
19758;SDS011;10038;42.662;23.278;2023-03-14T01:22:21;20.67;;;11.93;;
19758;SDS011;10038;42.662;23.278;2023-03-14T01:24:48;26.10;;;11.88;;
19758;SDS011;10038;42.662;23.278;2023-03-14T01:27:14;26.30;;;12.40;;
19758;SDS011;10038;42.662;23.278;2023-03-14T01:29:41;29.63;;;12.93;;
19758;SDS011;10038;42.662;23.278;2023-03-14T01:32:09;27.25;;;14.50;;
19758;SDS011;10038;42.662;23.278;2023-03-14T01:34:35;23.25;;;11.65;;
19758;SDS011;10038;42.662;23.278;2023-03-14T01:37:02;19.25;;;11.85;;
19758;SDS011;10038;42.662;23.278;2023-03-14T01:39:29;30.92;;;13.13;;
19758;SDS011;10038;42.662;23.278;2023-03-14T01:41:55;29.95;;;13.23;;
19758;SDS011;10038;42.662;23.278;2023-03-14T01:44:22;26.35;;;11.13;;
19758;SDS011;10038;42.662;23.278;2023-03-14T01:46:48;27.88;;;12.20;;
19758;SDS011;10038;42.662;23.278;2023-03-14T01:49:19;17.00;;;10.25;;
19758;SDS011;10038;42.662;23.278;2023-03-14T01:51:47;21.55;;;10.05;;
19758;SDS011;10038;42.662;23.278;2023-03-14T01:54:17;24.45;;;10.30;;
19758;SDS011;10038;42.662;23.278;2023-03-14T01:56:46;22.45;;;11.13;;
19758;SDS011;10038;42.662;23.278;2023-03-14T01:59:14;16.08;;;11.30;;
19758;SDS011;10038;42.662;23.278;2023-03-14T02:01:41;25.05;;;12.93;;
19758;SDS011;10038;42.662;23.278;2023-03-14T02:04:08;21.60;;;11.75;;
19758;SDS011;10038;42.662;23.278;2023-03-14T02:06:39;18.77;;;11.40;;
19758;SDS011;10038;42.662;23.278;2023-03-14T02:09:08;18.10;;;11.00;;
19758;SDS011;10038;42.662;23.278;2023-03-14T02:11:35;21.70;;;10.65;;
19758;SDS011;10038;42.662;23.278;2023-03-14T02:14:01;23.20;;;11.02;;
19758;SDS011;10038;42.662;23.278;2023-03-14T02:16:28;22.20;;;11.82;;
19758;SDS011;10038;42.662;23.278;2023-03-14T02:18:56;17.10;;;9.02;;
19758;SDS011;10038;42.662;23.278;2023-03-14T02:21:23;14.35;;;8.10;;
19758;SDS011;10038;42.662;23.278;2023-03-14T02:23:56;18.75;;;10.27;;
19758;SDS011;10038;42.662;23.278;2023-03-14T02:26:26;13.40;;;8.35;;
19758;SDS011;10038;42.662;23.278;2023-03-14T02:28:55;16.05;;;8.20;;
19758;SDS011;10038;42.662;23.278;2023-03-14T02:31:22;22.10;;;8.75;;
19758;SDS011;10038;42.662;23.278;2023-03-14T02:33:48;16.83;;;9.52;;
19758;SDS011;10038;42.662;23.278;2023-03-14T02:36:15;20.27;;;8.77;;
19758;SDS011;10038;42.662;23.278;2023-03-14T02:38:45;17.52;;;8.13;;
19758;SDS011;10038;42.662;23.278;2023-03-14T02:41:13;24.70;;;10.70;;
19758;SDS011;10038;42.662;23.278;2023-03-14T02:43:40;29.42;;;13.23;;
19758;SDS011;10038;42.662;23.278;2023-03-14T02:46:08;24.70;;;10.25;;
19758;SDS011;10038;42.662;23.278;2023-03-14T02:48:37;19.33;;;9.95;;
19758;SDS011;10038;42.662;23.278;2023-03-14T02:51:06;22.92;;;9.95;;
19758;SDS011;10038;42.662;23.278;2023-03-14T02:53:33;30.27;;;11.32;;
19758;SDS011;10038;42.662;23.278;2023-03-14T02:56:00;31.98;;;12.45;;
19758;SDS011;10038;42.662;23.278;2023-03-14T02:58:27;24.00;;;12.60;;
19758;SDS011;10038;42.662;23.278;2023-03-14T03:00:54;29.13;;;13.55;;
19758;SDS011;10038;42.662;23.278;2023-03-14T03:03:22;44.33;;;19.05;;
19758;SDS011;10038;42.662;23.278;2023-03-14T03:05:48;42.13;;;15.52;;
19758;SDS011;10038;42.662;23.278;2023-03-14T03:08:15;31.30;;;14.85;;
19758;SDS011;10038;42.662;23.278;2023-03-14T03:10:42;27.48;;;12.38;;
19758;SDS011;10038;42.662;23.278;2023-03-14T03:13:08;34.50;;;12.77;;
19758;SDS011;10038;42.662;23.278;2023-03-14T03:15:35;23.88;;;10.57;;
19758;SDS011;10038;42.662;23.278;2023-03-14T03:18:01;26.88;;;11.27;;
19758;SDS011;10038;42.662;23.278;2023-03-14T03:20:29;17.83;;;9.75;;
19758;SDS011;10038;42.662;23.278;2023-03-14T03:22:56;25.52;;;11.60;;
19758;SDS011;10038;42.662;23.278;2023-03-14T03:25:22;19.52;;;10.95;;
19758;SDS011;10038;42.662;23.278;2023-03-14T03:27:49;22.63;;;10.93;;
19758;SDS011;10038;42.662;23.278;2023-03-14T03:30:15;22.10;;;10.35;;
19758;SDS011;10038;42.662;23.278;2023-03-14T03:32:42;14.80;;;8.52;;
19758;SDS011;10038;42.662;23.278;2023-03-14T03:35:09;14.95;;;7.45;;
19758;SDS011;10038;42.662;23.278;2023-03-14T03:37:37;11.02;;;7.80;;
19758;SDS011;10038;42.662;23.278;2023-03-14T03:40:04;15.30;;;9.55;;
19758;SDS011;10038;42.662;23.278;2023-03-14T03:42:31;15.80;;;8.50;;
19758;SDS011;10038;42.662;23.278;2023-03-14T03:44:58;17.95;;;8.02;;
19758;SDS011;10038;42.662;23.278;2023-03-14T03:47:24;21.13;;;8.82;;
19758;SDS011;10038;42.662;23.278;2023-03-14T03:49:51;17.52;;;8.20;;
19758;SDS011;10038;42.662;23.278;2023-03-14T03:52:17;16.92;;;9.60;;
19758;SDS011;10038;42.662;23.278;2023-03-14T03:54:47;21.27;;;9.32;;
19758;SDS011;10038;42.662;23.278;2023-03-14T03:57:13;22.25;;;10.02;;
19758;SDS011;10038;42.662;23.278;2023-03-14T03:59:40;15.13;;;8.50;;
19758;SDS011;10038;42.662;23.278;2023-03-14T04:02:06;18.45;;;9.95;;
19758;SDS011;10038;42.662;23.278;2023-03-14T04:04:33;19.25;;;8.90;;
19758;SDS011;10038;42.662;23.278;2023-03-14T04:06:59;16.13;;;10.00;;
19758;SDS011;10038;42.662;23.278;2023-03-14T04:09:26;18.83;;;9.25;;
19758;SDS011;10038;42.662;23.278;2023-03-14T04:11:54;20.50;;;10.25;;
19758;SDS011;10038;42.662;23.278;2023-03-14T04:14:20;16.42;;;9.07;;
19758;SDS011;10038;42.662;23.278;2023-03-14T04:16:47;20.65;;;9.77;;
19758;SDS011;10038;42.662;23.278;2023-03-14T04:19:14;20.45;;;9.88;;
19758;SDS011;10038;42.662;23.278;2023-03-14T04:21:40;16.90;;;9.85;;
19758;SDS011;10038;42.662;23.278;2023-03-14T04:24:14;15.88;;;8.77;;
19758;SDS011;10038;42.662;23.278;2023-03-14T04:26:40;18.70;;;9.35;;
19758;SDS011;10038;42.662;23.278;2023-03-14T04:29:08;19.83;;;9.38;;
19758;SDS011;10038;42.662;23.278;2023-03-14T04:31:35;14.88;;;9.00;;
19758;SDS011;10038;42.662;23.278;2023-03-14T04:34:01;19.65;;;9.98;;
19758;SDS011;10038;42.662;23.278;2023-03-14T04:36:28;22.77;;;10.00;;
19758;SDS011;10038;42.662;23.278;2023-03-14T04:38:54;15.30;;;8.63;;
19758;SDS011;10038;42.662;23.278;2023-03-14T04:41:21;21.83;;;9.27;;
19758;SDS011;10038;42.662;23.278;2023-03-14T04:43:47;15.55;;;8.60;;
19758;SDS011;10038;42.662;23.278;2023-03-14T04:46:15;17.27;;;10.07;;
19758;SDS011;10038;42.662;23.278;2023-03-14T04:48:42;24.92;;;9.93;;
19758;SDS011;10038;42.662;23.278;2023-03-14T04:51:08;21.08;;;9.05;;
19758;SDS011;10038;42.662;23.278;2023-03-14T04:53:35;18.17;;;9.43;;
19758;SDS011;10038;42.662;23.278;2023-03-14T04:56:02;22.02;;;10.13;;
19758;SDS011;10038;42.662;23.278;2023-03-14T04:58:28;16.60;;;10.45;;
19758;SDS011;10038;42.662;23.278;2023-03-14T05:00:55;15.88;;;9.63;;
19758;SDS011;10038;42.662;23.278;2023-03-14T05:03:23;17.48;;;9.30;;
19758;SDS011;10038;42.662;23.278;2023-03-14T05:05:49;19.00;;;9.60;;
19758;SDS011;10038;42.662;23.278;2023-03-14T05:08:16;21.25;;;10.68;;
19758;SDS011;10038;42.662;23.278;2023-03-14T05:10:42;19.30;;;8.95;;
19758;SDS011;10038;42.662;23.278;2023-03-14T05:13:09;18.80;;;9.82;;
19758;SDS011;10038;42.662;23.278;2023-03-14T05:15:36;18.92;;;9.13;;
19758;SDS011;10038;42.662;23.278;2023-03-14T05:18:02;24.13;;;9.93;;
19758;SDS011;10038;42.662;23.278;2023-03-14T05:20:31;21.33;;;11.20;;
19758;SDS011;10038;42.662;23.278;2023-03-14T05:22:58;19.65;;;11.75;;
19758;SDS011;10038;42.662;23.278;2023-03-14T05:25:24;17.10;;;10.25;;
19758;SDS011;10038;42.662;23.278;2023-03-14T05:27:53;26.73;;;12.82;;
19758;SDS011;10038;42.662;23.278;2023-03-14T05:30:19;32.72;;;11.90;;
19758;SDS011;10038;42.662;23.278;2023-03-14T05:32:46;23.95;;;13.20;;
19758;SDS011;10038;42.662;23.278;2023-03-14T05:35:13;22.00;;;11.32;;
19758;SDS011;10038;42.662;23.278;2023-03-14T05:37:41;25.42;;;11.30;;
19758;SDS011;10038;42.662;23.278;2023-03-14T05:40:08;26.10;;;13.15;;
19758;SDS011;10038;42.662;23.278;2023-03-14T05:42:35;20.00;;;11.13;;
19758;SDS011;10038;42.662;23.278;2023-03-14T05:45:01;17.05;;;10.40;;
19758;SDS011;10038;42.662;23.278;2023-03-14T05:47:28;18.65;;;11.27;;
19758;SDS011;10038;42.662;23.278;2023-03-14T05:49:54;22.95;;;11.48;;
19758;SDS011;10038;42.662;23.278;2023-03-14T05:52:21;18.10;;;10.50;;
19758;SDS011;10038;42.662;23.278;2023-03-14T05:54:49;20.15;;;10.98;;
19758;SDS011;10038;42.662;23.278;2023-03-14T05:57:16;30.38;;;10.45;;
19758;SDS011;10038;42.662;23.278;2023-03-14T05:59:42;20.85;;;11.00;;
19758;SDS011;10038;42.662;23.278;2023-03-14T06:02:09;25.63;;;11.55;;
19758;SDS011;10038;42.662;23.278;2023-03-14T06:04:35;23.92;;;12.30;;
19758;SDS011;10038;42.662;23.278;2023-03-14T06:07:02;21.10;;;12.02;;
19758;SDS011;10038;42.662;23.278;2023-03-14T06:09:29;18.05;;;10.77;;
19758;SDS011;10038;42.662;23.278;2023-03-14T06:11:56;22.35;;;13.18;;
19758;SDS011;10038;42.662;23.278;2023-03-14T06:14:23;24.73;;;10.80;;
19758;SDS011;10038;42.662;23.278;2023-03-14T06:16:51;19.83;;;11.35;;
19758;SDS011;10038;42.662;23.278;2023-03-14T06:19:18;22.17;;;10.40;;
19758;SDS011;10038;42.662;23.278;2023-03-14T06:21:44;18.23;;;11.18;;
19758;SDS011;10038;42.662;23.278;2023-03-14T06:24:11;18.65;;;10.48;;
19758;SDS011;10038;42.662;23.278;2023-03-14T06:26:37;17.33;;;10.90;;
19758;SDS011;10038;42.662;23.278;2023-03-14T06:29:05;21.02;;;11.52;;
19758;SDS011;10038;42.662;23.278;2023-03-14T06:31:32;25.38;;;12.45;;
19758;SDS011;10038;42.662;23.278;2023-03-14T06:33:59;19.17;;;11.27;;
19758;SDS011;10038;42.662;23.278;2023-03-14T06:36:25;18.65;;;12.30;;
19758;SDS011;10038;42.662;23.278;2023-03-14T06:38:52;19.27;;;11.10;;
19758;SDS011;10038;42.662;23.278;2023-03-14T06:41:19;18.40;;;11.15;;
19758;SDS011;10038;42.662;23.278;2023-03-14T06:43:45;18.35;;;12.10;;
19758;SDS011;10038;42.662;23.278;2023-03-14T06:46:13;22.27;;;12.65;;
19758;SDS011;10038;42.662;23.278;2023-03-14T06:48:40;21.50;;;12.50;;
19758;SDS011;10038;42.662;23.278;2023-03-14T06:51:07;21.88;;;12.85;;
19758;SDS011;10038;42.662;23.278;2023-03-14T06:53:33;24.85;;;13.40;;
19758;SDS011;10038;42.662;23.278;2023-03-14T06:56:00;23.05;;;12.10;;
19758;SDS011;10038;42.662;23.278;2023-03-14T06:58:27;17.75;;;11.90;;
19758;SDS011;10038;42.662;23.278;2023-03-14T07:00:53;19.75;;;10.30;;
19758;SDS011;10038;42.662;23.278;2023-03-14T07:03:21;17.70;;;10.77;;
19758;SDS011;10038;42.662;23.278;2023-03-14T07:05:48;15.85;;;10.30;;
19758;SDS011;10038;42.662;23.278;2023-03-14T07:08:14;24.73;;;11.27;;
19758;SDS011;10038;42.662;23.278;2023-03-14T07:10:41;14.43;;;9.50;;
19758;SDS011;10038;42.662;23.278;2023-03-14T07:13:07;18.10;;;9.70;;
19758;SDS011;10038;42.662;23.278;2023-03-14T07:15:34;16.90;;;10.20;;
19758;SDS011;10038;42.662;23.278;2023-03-14T07:18:01;15.80;;;10.80;;
19758;SDS011;10038;42.662;23.278;2023-03-14T07:20:29;14.23;;;10.40;;
19758;SDS011;10038;42.662;23.278;2023-03-14T07:22:59;14.57;;;8.70;;
19758;SDS011;10038;42.662;23.278;2023-03-14T07:25:28;15.93;;;10.03;;
19758;SDS011;10038;42.662;23.278;2023-03-14T07:27:54;22.43;;;10.37;;
19758;SDS011;10038;42.662;23.278;2023-03-14T07:30:21;14.43;;;10.80;;
19758;SDS011;10038;42.662;23.278;2023-03-14T07:32:48;17.17;;;11.70;;
19758;SDS011;10038;42.662;23.278;2023-03-14T07:35:14;18.10;;;11.90;;
19758;SDS011;10038;42.662;23.278;2023-03-14T07:37:42;18.07;;;10.93;;
19758;SDS011;10038;42.662;23.278;2023-03-14T07:40:09;15.67;;;10.83;;
19758;SDS011;10038;42.662;23.278;2023-03-14T07:42:39;20.30;;;10.90;;
19758;SDS011;10038;42.662;23.278;2023-03-14T07:45:07;14.70;;;10.30;;
19758;SDS011;10038;42.662;23.278;2023-03-14T07:47:33;11.50;;;9.10;;
19758;SDS011;10038;42.662;23.278;2023-03-14T07:50:00;11.60;;;8.37;;
19758;SDS011;10038;42.662;23.278;2023-03-14T07:52:26;15.53;;;9.67;;
19758;SDS011;10038;42.662;23.278;2023-03-14T07:54:54;17.17;;;10.13;;
19758;SDS011;10038;42.662;23.278;2023-03-14T07:57:21;10.17;;;7.83;;
19758;SDS011;10038;42.662;23.278;2023-03-14T07:59:49;13.67;;;9.83;;
19758;SDS011;10038;42.662;23.278;2023-03-14T08:02:15;11.00;;;8.67;;
19758;SDS011;10038;42.662;23.278;2023-03-14T08:04:43;11.37;;;8.17;;
19758;SDS011;10038;42.662;23.278;2023-03-14T08:07:09;12.43;;;9.10;;
19758;SDS011;10038;42.662;23.278;2023-03-14T08:09:36;8.83;;;8.00;;
19758;SDS011;10038;42.662;23.278;2023-03-14T08:12:04;13.03;;;8.77;;
19758;SDS011;10038;42.662;23.278;2023-03-14T08:14:31;8.70;;;7.67;;
19758;SDS011;10038;42.662;23.278;2023-03-14T08:16:57;10.00;;;7.67;;
19758;SDS011;10038;42.662;23.278;2023-03-14T08:19:24;8.87;;;7.50;;
19758;SDS011;10038;42.662;23.278;2023-03-14T08:21:51;11.10;;;8.37;;
19758;SDS011;10038;42.662;23.278;2023-03-14T08:24:17;9.97;;;8.73;;
19758;SDS011;10038;42.662;23.278;2023-03-14T08:26:44;12.10;;;9.53;;
19758;SDS011;10038;42.662;23.278;2023-03-14T08:29:12;16.27;;;9.40;;
19758;SDS011;10038;42.662;23.278;2023-03-14T08:31:39;11.60;;;9.60;;
19758;SDS011;10038;42.662;23.278;2023-03-14T08:34:05;18.57;;;10.33;;
19758;SDS011;10038;42.662;23.278;2023-03-14T08:36:32;18.40;;;10.60;;
19758;SDS011;10038;42.662;23.278;2023-03-14T08:38:59;13.70;;;10.37;;
19758;SDS011;10038;42.662;23.278;2023-03-14T08:41:26;12.87;;;11.50;;
19758;SDS011;10038;42.662;23.278;2023-03-14T08:43:52;11.90;;;10.57;;
19758;SDS011;10038;42.662;23.278;2023-03-14T08:46:20;19.73;;;10.40;;
19758;SDS011;10038;42.662;23.278;2023-03-14T08:48:47;13.13;;;11.17;;
19758;SDS011;10038;42.662;23.278;2023-03-14T08:51:13;14.20;;;11.60;;
19758;SDS011;10038;42.662;23.278;2023-03-14T08:53:40;16.80;;;11.43;;
19758;SDS011;10038;42.662;23.278;2023-03-14T08:56:07;20.20;;;12.40;;
19758;SDS011;10038;42.662;23.278;2023-03-14T08:58:35;13.53;;;10.97;;
19758;SDS011;10038;42.662;23.278;2023-03-14T09:01:03;16.10;;;12.50;;
19758;SDS011;10038;42.662;23.278;2023-03-14T09:03:31;16.03;;;11.13;;
19758;SDS011;10038;42.662;23.278;2023-03-14T09:06:01;12.87;;;10.20;;
19758;SDS011;10038;42.662;23.278;2023-03-14T09:08:28;12.73;;;10.13;;
19758;SDS011;10038;42.662;23.278;2023-03-14T09:10:55;15.63;;;10.00;;
19758;SDS011;10038;42.662;23.278;2023-03-14T09:13:21;15.03;;;9.83;;
19758;SDS011;10038;42.662;23.278;2023-03-14T09:15:50;14.30;;;10.50;;
19758;SDS011;10038;42.662;23.278;2023-03-14T09:18:16;17.87;;;11.07;;
19758;SDS011;10038;42.662;23.278;2023-03-14T09:20:44;12.93;;;10.73;;
19758;SDS011;10038;42.662;23.278;2023-03-14T09:23:11;15.80;;;10.77;;
19758;SDS011;10038;42.662;23.278;2023-03-14T09:25:37;11.50;;;10.10;;
19758;SDS011;10038;42.662;23.278;2023-03-14T09:28:04;11.97;;;8.30;;
19758;SDS011;10038;42.662;23.278;2023-03-14T09:30:31;12.33;;;9.03;;
19758;SDS011;10038;42.662;23.278;2023-03-14T09:32:57;9.50;;;8.37;;
19758;SDS011;10038;42.662;23.278;2023-03-14T09:35:24;11.57;;;9.30;;
19758;SDS011;10038;42.662;23.278;2023-03-14T09:37:52;13.30;;;10.57;;
19758;SDS011;10038;42.662;23.278;2023-03-14T09:40:19;17.67;;;11.43;;
19758;SDS011;10038;42.662;23.278;2023-03-14T09:42:46;13.80;;;10.57;;
19758;SDS011;10038;42.662;23.278;2023-03-14T09:45:15;13.83;;;10.30;;
19758;SDS011;10038;42.662;23.278;2023-03-14T09:47:43;10.83;;;9.70;;
19758;SDS011;10038;42.662;23.278;2023-03-14T09:50:11;13.50;;;9.20;;
19758;SDS011;10038;42.662;23.278;2023-03-14T09:52:39;9.83;;;8.53;;
19758;SDS011;10038;42.662;23.278;2023-03-14T09:55:09;8.87;;;7.97;;
19758;SDS011;10038;42.662;23.278;2023-03-14T09:57:37;13.70;;;7.93;;
19758;SDS011;10038;42.662;23.278;2023-03-14T10:00:09;12.00;;;8.13;;
19758;SDS011;10038;42.662;23.278;2023-03-14T10:02:39;10.20;;;8.17;;
19758;SDS011;10038;42.662;23.278;2023-03-14T10:05:13;14.50;;;9.53;;
19758;SDS011;10038;42.662;23.278;2023-03-14T10:07:39;11.83;;;8.47;;
19758;SDS011;10038;42.662;23.278;2023-03-14T10:10:10;12.00;;;9.10;;
19758;SDS011;10038;42.662;23.278;2023-03-14T10:12:37;15.50;;;9.20;;
19758;SDS011;10038;42.662;23.278;2023-03-14T10:15:05;12.80;;;8.50;;
19758;SDS011;10038;42.662;23.278;2023-03-14T10:17:37;8.90;;;7.37;;
19758;SDS011;10038;42.662;23.278;2023-03-14T10:20:04;13.03;;;7.87;;
19758;SDS011;10038;42.662;23.278;2023-03-14T10:22:31;9.67;;;8.67;;
19758;SDS011;10038;42.662;23.278;2023-03-14T10:25:00;12.20;;;7.87;;
19758;SDS011;10038;42.662;23.278;2023-03-14T10:27:29;10.93;;;7.37;;
19758;SDS011;10038;42.662;23.278;2023-03-14T10:29:56;12.43;;;8.00;;
19758;SDS011;10038;42.662;23.278;2023-03-14T10:32:27;20.90;;;8.07;;
19758;SDS011;10038;42.662;23.278;2023-03-14T10:35:08;12.40;;;7.80;;
19758;SDS011;10038;42.662;23.278;2023-03-14T10:37:47;8.77;;;7.57;;
19758;SDS011;10038;42.662;23.278;2023-03-14T10:40:14;10.87;;;8.60;;
19758;SDS011;10038;42.662;23.278;2023-03-14T10:42:42;12.90;;;8.03;;
19758;SDS011;10038;42.662;23.278;2023-03-14T10:45:22;14.40;;;9.60;;
19758;SDS011;10038;42.662;23.278;2023-03-14T10:47:50;11.53;;;8.03;;
19758;SDS011;10038;42.662;23.278;2023-03-14T10:50:24;9.20;;;7.63;;
19758;SDS011;10038;42.662;23.278;2023-03-14T10:52:51;12.53;;;8.30;;
19758;SDS011;10038;42.662;23.278;2023-03-14T10:55:18;10.03;;;8.10;;
19758;SDS011;10038;42.662;23.278;2023-03-14T10:57:46;10.53;;;8.23;;
19758;SDS011;10038;42.662;23.278;2023-03-14T11:00:14;13.10;;;8.90;;
19758;SDS011;10038;42.662;23.278;2023-03-14T11:02:45;9.90;;;8.03;;
19758;SDS011;10038;42.662;23.278;2023-03-14T11:05:18;13.97;;;8.60;;
19758;SDS011;10038;42.662;23.278;2023-03-14T11:07:47;9.80;;;8.80;;
19758;SDS011;10038;42.662;23.278;2023-03-14T11:10:16;14.53;;;10.60;;
19758;SDS011;10038;42.662;23.278;2023-03-14T11:12:49;16.27;;;8.50;;
19758;SDS011;10038;42.662;23.278;2023-03-14T11:15:20;12.40;;;8.73;;
19758;SDS011;10038;42.662;23.278;2023-03-14T11:17:50;12.10;;;6.83;;
19758;SDS011;10038;42.662;23.278;2023-03-14T11:20:24;8.87;;;7.40;;
19758;SDS011;10038;42.662;23.278;2023-03-14T11:22:55;11.03;;;7.07;;
19758;SDS011;10038;42.662;23.278;2023-03-14T11:25:26;11.80;;;7.30;;
19758;SDS011;10038;42.662;23.278;2023-03-14T11:28:00;8.60;;;7.00;;
19758;SDS011;10038;42.662;23.278;2023-03-14T11:30:30;8.53;;;6.97;;
19758;SDS011;10038;42.662;23.278;2023-03-14T11:33:02;7.67;;;6.40;;
19758;SDS011;10038;42.662;23.278;2023-03-14T11:35:30;10.03;;;7.00;;
19758;SDS011;10038;42.662;23.278;2023-03-14T11:38:01;8.80;;;6.13;;
19758;SDS011;10038;42.662;23.278;2023-03-14T11:41:17;7.50;;;6.07;;
19758;SDS011;10038;42.662;23.278;2023-03-14T11:43:32;7.10;;;5.03;;
19758;SDS011;10038;42.662;23.278;2023-03-14T11:46:03;5.87;;;5.27;;
19758;SDS011;10038;42.662;23.278;2023-03-14T11:48:34;6.73;;;5.13;;
19758;SDS011;10038;42.662;23.278;2023-03-14T11:51:01;8.53;;;6.40;;
19758;SDS011;10038;42.662;23.278;2023-03-14T11:53:36;7.63;;;5.13;;
19758;SDS011;10038;42.662;23.278;2023-03-14T11:56:06;4.90;;;4.40;;
19758;SDS011;10038;42.662;23.278;2023-03-14T11:58:38;8.30;;;5.40;;
19758;SDS011;10038;42.662;23.278;2023-03-14T12:01:09;8.03;;;5.50;;
19758;SDS011;10038;42.662;23.278;2023-03-14T12:03:38;4.70;;;4.03;;
19758;SDS011;10038;42.662;23.278;2023-03-14T12:06:09;5.10;;;4.10;;
19758;SDS011;10038;42.662;23.278;2023-03-14T12:08:42;7.90;;;4.80;;
19758;SDS011;10038;42.662;23.278;2023-03-14T12:11:20;4.70;;;4.30;;
19758;SDS011;10038;42.662;23.278;2023-03-14T12:13:49;7.40;;;4.23;;
19758;SDS011;10038;42.662;23.278;2023-03-14T12:16:24;6.10;;;4.90;;
19758;SDS011;10038;42.662;23.278;2023-03-14T12:18:52;5.73;;;3.47;;
19758;SDS011;10038;42.662;23.278;2023-03-14T12:21:41;5.83;;;4.40;;
19758;SDS011;10038;42.662;23.278;2023-03-14T12:24:14;4.10;;;3.70;;
19758;SDS011;10038;42.662;23.278;2023-03-14T12:26:44;4.00;;;3.20;;
19758;SDS011;10038;42.662;23.278;2023-03-14T12:29:16;6.20;;;3.80;;
19758;SDS011;10038;42.662;23.278;2023-03-14T12:31:43;4.10;;;3.67;;
19758;SDS011;10038;42.662;23.278;2023-03-14T12:34:26;6.43;;;3.60;;
19758;SDS011;10038;42.662;23.278;2023-03-14T12:36:55;3.33;;;3.03;;
19758;SDS011;10038;42.662;23.278;2023-03-14T12:39:25;5.67;;;2.73;;
19758;SDS011;10038;42.662;23.278;2023-03-14T12:42:01;3.50;;;3.13;;
19758;SDS011;10038;42.662;23.278;2023-03-14T12:44:39;3.93;;;3.00;;
19758;SDS011;10038;42.662;23.278;2023-03-14T12:49:52;3.43;;;3.13;;
19758;SDS011;10038;42.662;23.278;2023-03-14T12:52:21;3.90;;;2.67;;
19758;SDS011;10038;42.662;23.278;2023-03-14T12:54:48;5.60;;;3.60;;
19758;SDS011;10038;42.662;23.278;2023-03-14T12:57:21;3.47;;;2.87;;
19758;SDS011;10038;42.662;23.278;2023-03-14T12:59:54;5.40;;;3.50;;
19758;SDS011;10038;42.662;23.278;2023-03-14T13:02:23;3.47;;;2.73;;
19758;SDS011;10038;42.662;23.278;2023-03-14T13:04:50;4.17;;;2.87;;
19758;SDS011;10038;42.662;23.278;2023-03-14T13:07:35;2.67;;;2.47;;
19758;SDS011;10038;42.662;23.278;2023-03-14T13:12:50;4.03;;;2.47;;
19758;SDS011;10038;42.662;23.278;2023-03-14T13:15:20;5.50;;;2.67;;
19758;SDS011;10038;42.662;23.278;2023-03-14T13:17:48;3.57;;;3.00;;
19758;SDS011;10038;42.662;23.278;2023-03-14T13:20:16;4.10;;;2.50;;
19758;SDS011;10038;42.662;23.278;2023-03-14T13:22:46;5.40;;;2.80;;
19758;SDS011;10038;42.662;23.278;2023-03-14T13:25:12;4.23;;;2.70;;
19758;SDS011;10038;42.662;23.278;2023-03-14T13:27:40;5.00;;;2.80;;
19758;SDS011;10038;42.662;23.278;2023-03-14T13:30:15;2.83;;;2.60;;
19758;SDS011;10038;42.662;23.278;2023-03-14T13:32:43;4.10;;;2.63;;
19758;SDS011;10038;42.662;23.278;2023-03-14T13:35:14;4.33;;;2.30;;
19758;SDS011;10038;42.662;23.278;2023-03-14T13:37:41;4.03;;;2.20;;
19758;SDS011;10038;42.662;23.278;2023-03-14T13:40:17;5.87;;;2.00;;
19758;SDS011;10038;42.662;23.278;2023-03-14T13:42:44;3.60;;;2.70;;
19758;SDS011;10038;42.662;23.278;2023-03-14T13:45:12;8.17;;;2.53;;
19758;SDS011;10038;42.662;23.278;2023-03-14T13:47:38;4.37;;;2.37;;
19758;SDS011;10038;42.662;23.278;2023-03-14T13:52:40;6.10;;;2.30;;
19758;SDS011;10038;42.662;23.278;2023-03-14T13:55:13;4.93;;;2.30;;
19758;SDS011;10038;42.662;23.278;2023-03-14T13:57:43;2.67;;;2.13;;
19758;SDS011;10038;42.662;23.278;2023-03-14T14:00:17;2.83;;;2.40;;
19758;SDS011;10038;42.662;23.278;2023-03-14T14:02:44;4.73;;;2.53;;
19758;SDS011;10038;42.662;23.278;2023-03-14T14:05:11;2.97;;;2.30;;
19758;SDS011;10038;42.662;23.278;2023-03-14T14:07:38;6.40;;;2.20;;
19758;SDS011;10038;42.662;23.278;2023-03-14T14:10:08;2.40;;;2.20;;
19758;SDS011;10038;42.662;23.278;2023-03-14T14:12:37;4.43;;;2.73;;
19758;SDS011;10038;42.662;23.278;2023-03-14T14:15:05;4.73;;;2.10;;
19758;SDS011;10038;42.662;23.278;2023-03-14T14:17:38;18.37;;;2.77;;
19758;SDS011;10038;42.662;23.278;2023-03-14T14:20:10;2.10;;;1.90;;
19758;SDS011;10038;42.662;23.278;2023-03-14T14:22:40;6.00;;;2.40;;
19758;SDS011;10038;42.662;23.278;2023-03-14T14:25:12;4.90;;;2.77;;
19758;SDS011;10038;42.662;23.278;2023-03-14T14:27:41;3.30;;;2.10;;
19758;SDS011;10038;42.662;23.278;2023-03-14T14:30:24;3.03;;;2.43;;
19758;SDS011;10038;42.662;23.278;2023-03-14T14:32:51;4.13;;;2.47;;